»·PEaware :: BOE561 KSLC-KLAS

BOE561 :: KSLC-KLAS

FLIGHT INFORMATION

Flight Status: Arrived
Operator:
Boeing Commercial Airplane Group
More flights by this operator :: More flights under this callsign
Pilot: Ben F. (2808)
Aircraft: BOEING 737-200
(B732)
More flights by this aircraft type
Origin: KSLC Salt Lake City Intl
United States
Destination: KLAS McCarran Intl
United States
More flights between these airports :: More routes between these airports
Route: +FFU9 MLF LUXOR2
File this flight plan on PilotEdge
Remarks:
Altitude:
(Current/Filed)
32,000ft
Speed:
(Current/Filed)
435kts
Departed: 15-Apr-18 09:15 AM
Arrived: 15-Apr-18 10:18 AM
Distance/Time
Traveled:
320nm/1:03
Distance/Time
To Go:
Arrived

Flight Plot

Page will automatically refresh every two minutes.

Flight plan parsing failed; only flown route is shown


Map Options




Map Legend


Flown Route
Filed Route
Departure Airport
Arrival Airport
Navaid (VOR, NDB)
Fix

Horizontal Profiles

Position Reports

Time Latitude Longitude Heading Altitude Ground
Speed
15-Apr-18 09:01 40.779742 -111.958861 180 4236ft 0kts
15-Apr-18 09:02 40.779742 -111.958861 180 4236ft 0kts
15-Apr-18 09:03 40.779742 -111.958861 180 4236ft 0kts
15-Apr-18 09:04 40.779742 -111.958861 180 4236ft 0kts
15-Apr-18 09:05 40.779742 -111.958861 180 4236ft 0kts
15-Apr-18 09:06 40.779742 -111.958861 180 4236ft 0kts
15-Apr-18 09:07 40.779742 -111.958861 180 4236ft 0kts
15-Apr-18 09:08 40.779742 -111.958861 180 4236ft 0kts
15-Apr-18 09:09 40.779081 -111.958853 188 4236ft 8kts
15-Apr-18 09:10 40.782451 -111.960002 359 4236ft 22kts
15-Apr-18 09:11 40.789308 -111.960000 0 4236ft 25kts
15-Apr-18 09:12 40.796226 -111.960002 359 4236ft 24kts
15-Apr-18 09:13 40.799392 -111.960421 276 4236ft 0kts
15-Apr-18 09:14 40.790560 -111.962062 179 4236ft 114kts
15-Apr-18 09:15 40.744891 -111.959661 173 6075ft 185kts
15-Apr-18 09:16 40.689100 -111.948678 173 7862ft 235kts
15-Apr-18 09:17 40.620136 -111.937080 179 9859ft 274kts
15-Apr-18 09:18 40.542966 -111.939207 183 11662ft 308kts
15-Apr-18 09:19 40.455568 -111.939677 183 13727ft 321kts
15-Apr-18 09:20 40.366120 -111.939881 184 15775ft 329kts
15-Apr-18 09:21 40.274832 -111.940592 188 17720ft 336kts
15-Apr-18 09:22 40.182155 -111.953777 191 19459ft 344kts
15-Apr-18 09:23 40.103151 -111.965254 191 20744ft 350kts
15-Apr-18 09:24 39.989762 -111.981687 192 22329ft 359kts
15-Apr-18 09:25 39.893598 -111.995582 192 23480ft 366kts
15-Apr-18 09:26 39.793856 -112.009953 193 24539ft 372kts
15-Apr-18 09:27 39.691057 -112.024719 193 25477ft 378kts
15-Apr-18 09:28 39.586685 -112.039666 193 26311ft 384kts
15-Apr-18 09:29 39.481062 -112.054746 193 27052ft 389kts
15-Apr-18 09:30 39.373751 -112.069898 194 27716ft 394kts
15-Apr-18 09:31 39.283352 -112.082614 194 28214ft 398kts
15-Apr-18 09:32 39.173907 -112.097972 195 28821ft 399kts
15-Apr-18 09:33 39.086485 -112.166554 226 29460ft 371kts
15-Apr-18 09:34 39.010648 -112.253872 228 30071ft 369kts
15-Apr-18 09:35 38.935684 -112.342393 228 30625ft 369kts
15-Apr-18 09:36 38.862885 -112.428400 229 31169ft 368kts
15-Apr-18 09:37 38.788441 -112.516147 229 31659ft 368kts
15-Apr-18 09:38 38.714229 -112.603356 229 32147ft 368kts
15-Apr-18 09:39 38.639757 -112.690654 228 32163ft 379kts
15-Apr-18 09:40 38.564103 -112.779031 228 32159ft 387kts
15-Apr-18 09:41 38.485326 -112.870778 228 32158ft 386kts
15-Apr-18 09:42 38.406616 -112.961859 227 32156ft 385kts
15-Apr-18 09:43 38.319248 -113.038115 214 32154ft 395kts
15-Apr-18 09:44 38.221240 -113.099235 213 32153ft 395kts
15-Apr-18 09:45 38.123204 -113.159385 213 32159ft 393kts
15-Apr-18 09:46 38.025942 -113.218883 213 32171ft 391kts
15-Apr-18 09:47 37.928916 -113.278065 213 32176ft 390kts
15-Apr-18 09:48 37.835304 -113.334988 213 32179ft 389kts
15-Apr-18 09:49 37.738513 -113.393663 213 32178ft 388kts
15-Apr-18 09:50 37.642102 -113.451939 213 32176ft 388kts
15-Apr-18 09:51 37.545255 -113.510311 213 32173ft 387kts
15-Apr-18 09:52 37.448978 -113.568168 213 32166ft 387kts
15-Apr-18 09:53 37.352565 -113.625996 213 31397ft 391kts
15-Apr-18 09:54 37.263926 -113.678945 211 29423ft 383kts
15-Apr-18 09:55 37.170484 -113.734636 210 27175ft 370kts
15-Apr-18 09:56 37.079362 -113.788803 210 25241ft 362kts
15-Apr-18 09:57 36.989325 -113.842174 209 24184ft 359kts
15-Apr-18 09:58 36.900875 -113.894444 209 24136ft 354kts
15-Apr-18 09:59 36.816726 -113.944112 208 22513ft 351kts
15-Apr-18 10:00 36.730400 -113.994904 208 20224ft 341kts
15-Apr-18 10:01 36.646447 -114.044176 207 17978ft 333kts
15-Apr-18 10:02 36.571638 -114.104488 235 15723ft 325kts
15-Apr-18 10:03 36.525208 -114.199126 238 13482ft 322kts
15-Apr-18 10:04 36.480887 -114.292595 238 11982ft 297kts
15-Apr-18 10:05 36.440741 -114.377624 238 11986ft 284kts
15-Apr-18 10:06 36.401832 -114.460199 238 11986ft 274kts
15-Apr-18 10:07 36.362416 -114.543869 238 11989ft 286kts
15-Apr-18 10:08 36.322420 -114.628741 238 11894ft 283kts
15-Apr-18 10:09 36.285012 -114.709820 238 10162ft 280kts
15-Apr-18 10:10 36.251315 -114.785258 238 8505ft 276kts
15-Apr-18 10:11 36.204073 -114.857556 226 6690ft 268kts
15-Apr-18 10:12 36.157621 -114.923621 226 4983ft 243kts
15-Apr-18 10:13 36.142475 -115.001486 268 4661ft 244kts
15-Apr-18 10:14 36.142754 -115.081418 270 3664ft 231kts
15-Apr-18 10:15 36.133875 -115.139649 193 3029ft 157kts
15-Apr-18 10:16 36.097811 -115.157447 205 2194ft 136kts
15-Apr-18 10:17 36.082391 -115.167412 292 2150ft 8kts
15-Apr-18 10:18 36.079891 -115.169240 205 2150ft 14kts
15-Apr-18 10:19 36.080071 -115.170032 24 2150ft 14kts
15-Apr-18 10:20 36.080626 -115.170999 273 2150ft 0kts
15-Apr-18 10:21 36.080626 -115.170999 273 2150ft 0kts
15-Apr-18 10:22 36.080626 -115.170999 273 2150ft 0kts
15-Apr-18 10:23 36.080626 -115.170999 273 2150ft 0kts

Navigation Log

Ident Type
Flight plan parsing failed, navigation log unavailable